Time;durP1;ratioP1;P1;durP2;ratioP2;P2;SDS_P1;SDS_P2;PMS_P1;PMS_P2;Temp;Humidity;BMP_temperature;BMP_pressure;BME280_temperature;BME280_humidity;BME280_pressure;Samples;Min_cycle;Max_cycle;Signal;HPM_P1;HPM_P2
2022/02/07 00:00:01;;;;;;;39.55;36.75;;;3.20;99.90;;;;;;5047996;28;20025;-59
2022/02/07 00:02:39;;;;;;;39.75;36.95;;;3.10;99.90;;;;;;5029778;28;20029;-60
2022/02/07 00:05:05;;;;;;;38.63;35.83;;;3.10;99.90;;;;;;5051169;28;20029;-63
2022/02/07 00:07:30;;;;;;;37.63;34.92;;;3.10;99.90;;;;;;5052154;28;20037;-64
2022/02/07 00:09:56;;;;;;;35.92;33.33;;;3.20;99.90;;;;;;5052566;28;20029;-67
2022/02/07 00:12:21;;;;;;;29.92;27.52;;;3.10;99.90;;;;;;5051945;28;20027;-65
2022/02/07 00:14:47;;;;;;;25.58;23.38;;;3.30;99.90;;;;;;5050297;28;20029;-62
2022/02/07 00:17:13;;;;;;;25.35;23.10;;;3.40;99.90;;;;;;5051662;28;20021;-64
2022/02/07 00:19:39;;;;;;;25.05;22.85;;;3.60;99.90;;;;;;5051029;28;20013;-64
2022/02/07 00:22:05;;;;;;;25.75;23.52;;;3.60;99.90;;;;;;5051526;28;20529;-64
2022/02/07 00:24:31;;;;;;;24.17;21.98;;;3.60;99.90;;;;;;5033139;28;20021;-63
2022/02/07 00:26:56;;;;;;;24.83;22.63;;;3.50;99.90;;;;;;5051310;28;20025;-62
2022/02/07 00:29:22;;;;;;;24.55;22.35;;;3.60;99.90;;;;;;5033381;28;20132;-62
2022/02/07 00:31:47;;;;;;;23.55;21.45;;;3.50;99.90;;;;;;5051361;28;20036;-63
2022/02/07 00:34:13;;;;;;;23.08;20.98;;;3.40;99.90;;;;;;5051305;28;20029;-65
2022/02/07 00:36:39;;;;;;;22.05;19.95;;;3.40;99.90;;;;;;5046204;28;20511;-62
2022/02/07 00:39:10;;;;;;;22.50;20.40;;;3.40;99.90;;;;;;5034595;28;20478;-63
2022/02/07 00:41:49;;;;;;;23.05;20.95;;;3.40;99.90;;;;;;5033266;28;20021;-61
2022/02/07 00:44:18;;;;;;;23.05;20.95;;;3.30;99.90;;;;;;5034341;28;20410;-64
2022/02/07 00:46:50;;;;;;;23.15;21.05;;;3.20;99.90;;;;;;5034251;28;20120;-67
2022/02/07 00:49:15;;;;;;;22.85;20.75;;;3.10;99.90;;;;;;5016630;28;20033;-63
2022/02/07 00:51:41;;;;;;;23.48;21.38;;;3.10;99.90;;;;;;5034549;28;20128;-62
2022/02/07 00:54:07;;;;;;;24.10;21.95;;;3.00;99.90;;;;;;5033911;28;20022;-64
2022/02/07 00:56:32;;;;;;;23.40;21.30;;;3.00;99.90;;;;;;5034471;28;20118;-64
2022/02/07 00:58:58;;;;;;;23.33;21.23;;;3.00;99.90;;;;;;5016208;28;20021;-65
2022/02/07 01:01:27;;;;;;;23.40;21.30;;;3.00;99.90;;;;;;5034169;28;20435;-63
2022/02/07 01:03:53;;;;;;;23.48;21.38;;;3.10;99.90;;;;;;5049306;28;20021;-64
2022/02/07 01:06:20;;;;;;;24.20;22.10;;;3.00;99.90;;;;;;5056951;23;20046;-57
2022/02/07 01:08:50;;;;;;;23.48;21.38;;;3.00;99.90;;;;;;5034998;28;20029;-57
2022/02/07 01:46:52;;;;;;;21.45;19.45;;;2.90;99.90;;;;;;5033878;28;20078;-60
2022/02/07 01:56:36;;;;;;;21.58;19.58;;;2.90;99.90;;;;;;5033745;28;20443;-58
2022/02/07 01:59:02;;;;;;;22.02;20.02;;;2.90;99.90;;;;;;5033882;28;20029;-57
2022/02/07 02:01:28;;;;;;;21.38;19.38;;;2.90;99.90;;;;;;5032588;28;20493;-57
2022/02/07 02:03:54;;;;;;;21.35;19.35;;;3.00;99.90;;;;;;5033484;28;20049;-57
2022/02/07 02:06:22;;;;;;;21.63;19.63;;;3.00;99.90;;;;;;5032019;28;20426;-62
2022/02/07 02:08:48;;;;;;;21.60;19.60;;;2.90;99.90;;;;;;5033690;28;20419;-60
2022/02/07 02:11:14;;;;;;;21.60;19.60;;;2.90;99.90;;;;;;5033454;28;20485;-58
2022/02/07 02:14:06;;;;;;;21.70;19.70;;;2.90;99.90;;;;;;5031985;28;20057;-59
2022/02/07 02:22:30;;;;;;;20.05;18.15;;;3.10;99.90;;;;;;5037221;28;20087;-59
2022/02/07 02:38:49;;;;;;;20.80;18.80;;;3.00;99.90;;;;;;5033189;28;20021;-60
2022/02/07 02:46:45;;;;;;;20.85;18.85;;;2.90;99.90;;;;;;5033049;28;20109;-57
2022/02/07 02:49:11;;;;;;;21.25;19.25;;;3.00;99.90;;;;;;5032619;28;20027;-62
2022/02/07 02:51:37;;;;;;;21.08;19.08;;;3.10;99.90;;;;;;5031392;28;20029;-59
2022/02/07 02:54:05;;;;;;;21.17;19.17;;;3.10;99.90;;;;;;5032500;28;20026;-57
2022/02/07 02:56:31;;;;;;;;;;;3.10;99.90;;;;;;5032938;28;20022;-60
2022/02/07 02:58:57;;;;;;;21.50;19.50;;;3.10;99.90;;;;;;5032811;28;19905;-58
2022/02/07 03:01:22;;;;;;;21.33;19.33;;;3.10;99.90;;;;;;5031218;28;20025;-59
2022/02/07 03:03:48;;;;;;;21.35;19.35;;;3.10;99.90;;;;;;5032239;28;20455;-56
2022/02/07 03:06:14;;;;;;;21.80;19.80;;;3.10;99.90;;;;;;5038776;28;20032;-60
2022/02/07 03:08:40;;;;;;;20.98;18.98;;;3.20;99.90;;;;;;5052367;28;20024;-60
2022/02/07 03:11:11;;;;;;;20.45;18.55;;;3.30;99.90;;;;;;5052305;28;20396;-59
2022/02/07 03:18:57;;;;;;;19.77;17.88;;;3.50;99.90;;;;;;5052444;28;20036;-59
2022/02/07 03:21:23;;;;;;;19.05;17.15;;;3.60;99.90;;;;;;5034535;28;20473;-60
2022/02/07 03:23:48;;;;;;;19.73;17.83;;;3.60;99.90;;;;;;5051518;28;20032;-56
2022/02/07 03:26:17;;;;;;;18.17;16.38;;;3.60;99.90;;;;;;5033940;28;20254;-58
2022/02/07 03:28:43;;;;;;;17.90;16.10;;;3.70;99.90;;;;;;5034280;28;20098;-60
2022/02/07 03:31:09;;;;;;;24.42;19.52;;;3.80;99.90;;;;;;5052064;28;20024;-59
2022/02/07 03:33:36;;;;;;;18.25;16.45;;;3.70;99.90;;;;;;5052071;28;20040;-59
2022/02/07 03:36:02;;;;;;;18.00;16.20;;;3.70;99.90;;;;;;5051692;28;20115;-60
2022/02/07 03:38:28;;;;;;;17.88;16.08;;;3.70;99.90;;;;;;5052082;28;20029;-59
2022/02/07 03:40:53;;;;;;;17.95;16.15;;;3.70;99.90;;;;;;5051926;28;20491;-58
2022/02/07 03:43:19;;;;;;;17.88;16.08;;;3.70;99.90;;;;;;5052166;28;20504;-61
2022/02/07 03:45:44;;;;;;;17.40;15.60;;;3.80;99.90;;;;;;5051483;28;20029;-59
2022/02/07 03:48:10;;;;;;;17.45;15.65;;;3.90;99.90;;;;;;5051750;28;20480;-60
2022/02/07 03:50:36;;;;;;;17.77;15.98;;;3.90;99.90;;;;;;5052091;28;20029;-61
2022/02/07 03:53:02;;;;;;;17.73;15.93;;;3.90;99.90;;;;;;5051653;28;20029;-61
2022/02/07 03:55:28;;;;;;;17.75;15.95;;;4.00;99.90;;;;;;5051366;28;20047;-59
2022/02/07 03:57:53;;;;;;;17.55;15.75;;;4.00;99.90;;;;;;5051675;28;20029;-60
2022/02/07 04:00:19;;;;;;;17.55;15.75;;;3.90;99.90;;;;;;5051750;28;20441;-59
2022/02/07 04:02:49;;;;;;;17.25;15.45;;;3.90;99.90;;;;;;5051577;28;20044;-59
2022/02/07 04:05:45;;;;;;;17.45;15.65;;;3.90;99.90;;;;;;5051604;28;20033;-60
2022/02/07 04:08:05;;;;;;;22.17;17.00;;;3.90;99.90;;;;;;5050634;28;20183;-59
2022/02/07 04:10:37;;;;;;;18.13;16.33;;;3.90;99.90;;;;;;5034015;28;20033;-60
2022/02/07 04:13:05;;;;;;;18.23;16.42;;;3.80;99.90;;;;;;5033705;28;20078;-59
2022/02/07 04:15:31;;;;;;;18.35;16.55;;;3.70;99.90;;;;;;5051429;28;20055;-59
2022/02/07 04:18:02;;;;;;;18.48;16.67;;;3.70;99.90;;;;;;5051908;28;20049;-59
2022/02/07 04:20:27;;;;;;;18.42;16.63;;;3.70;99.90;;;;;;5051844;28;20511;-60
2022/02/07 04:22:53;;;;;;;18.63;16.83;;;3.70;99.90;;;;;;5051831;28;20104;-57
2022/02/07 04:25:18;;;;;;;18.42;16.63;;;3.70;99.90;;;;;;5051313;28;20021;-60
2022/02/07 04:27:44;;;;;;;18.83;16.92;;;3.70;99.90;;;;;;5051284;28;20389;-61
2022/02/07 04:30:11;;;;;;;18.92;17.02;;;3.70;99.90;;;;;;5033538;28;20029;-60
2022/02/07 04:32:36;;;;;;;19.30;17.40;;;3.70;99.90;;;;;;5033642;28;20025;-59
2022/02/07 04:35:02;;;;;;;19.75;17.85;;;3.70;99.90;;;;;;5033828;28;20033;-60
2022/02/07 04:37:28;;;;;;;19.20;17.30;;;3.80;99.90;;;;;;5051558;28;20094;-61
2022/02/07 04:39:54;;;;;;;19.10;17.20;;;3.80;99.90;;;;;;5051566;28;20053;-61
2022/02/07 04:42:22;;;;;;;18.90;17.10;;;3.80;99.90;;;;;;5051433;28;20029;-60
2022/02/07 04:55:12;;;;;;;;;;;4.00;99.90;;;;;;5055054;28;20499;-62
2022/02/07 05:15:49;;;;;;;20.25;18.35;;;4.20;99.90;;;;;;5054153;28;20032;-61
2022/02/07 05:18:15;;;;;;;20.35;18.45;;;4.10;99.90;;;;;;5054433;28;20494;-62
2022/02/07 05:20:40;;;;;;;20.92;19.02;;;4.10;99.90;;;;;;5054349;28;20033;-59
2022/02/07 05:23:06;;;;;;;20.98;19.08;;;4.10;99.90;;;;;;5054233;28;20021;-60
2022/02/07 05:25:33;;;;;;;21.80;19.80;;;4.10;99.90;;;;;;5054228;28;20029;-60
2022/02/07 05:27:58;;;;;;;25.60;21.35;;;4.10;99.90;;;;;;5036351;28;20045;-61
2022/02/07 05:30:24;;;;;;;22.15;20.15;;;4.10;99.90;;;;;;5054177;28;20515;-60
2022/02/07 05:32:49;;;;;;;20.95;19.05;;;4.10;99.90;;;;;;5036154;28;20032;-62
2022/02/07 05:35:15;;;;;;;20.92;19.02;;;4.10;99.90;;;;;;5035872;28;20627;-60
2022/02/07 05:37:41;;;;;;;20.02;18.13;;;4.20;99.90;;;;;;5054151;28;20021;-61
2022/02/07 05:40:21;;;;;;;20.02;18.13;;;4.20;99.90;;;;;;5054102;28;20025;-61
2022/02/07 05:42:46;;;;;;;21.25;19.25;;;4.20;99.90;;;;;;5036123;28;20079;-62
2022/02/07 05:45:12;;;;;;;19.88;17.98;;;4.20;99.90;;;;;;5053931;28;20441;-61
2022/02/07 05:47:38;;;;;;;20.33;18.42;;;4.20;99.90;;;;;;5035780;28;20049;-57
2022/02/07 05:50:04;;;;;;;19.77;17.88;;;4.20;99.90;;;;;;5053734;28;20496;-54
2022/02/07 05:52:30;;;;;;;19.92;18.02;;;4.20;99.90;;;;;;5035892;28;20068;-60
2022/02/07 05:54:55;;;;;;;19.50;17.60;;;4.10;99.90;;;;;;5053580;28;20052;-58
2022/02/07 05:57:21;;;;;;;24.73;22.42;;;4.20;99.90;;;;;;5053454;28;20473;-60
2022/02/07 05:59:47;;;;;;;19.63;17.73;;;4.20;99.90;;;;;;5053600;28;20021;-61
2022/02/07 06:02:12;;;;;;;20.17;18.27;;;4.30;99.90;;;;;;5052569;28;20044;-61
2022/02/07 06:04:38;;;;;;;20.05;18.15;;;4.30;99.90;;;;;;5053030;28;20033;-55
2022/02/07 06:07:04;;;;;;;19.48;17.58;;;4.30;99.90;;;;;;5053222;28;20033;-61
2022/02/07 06:09:29;;;;;;;19.55;17.65;;;4.40;99.90;;;;;;5053315;28;20032;-57
2022/02/07 06:11:56;;;;;;;19.35;17.45;;;4.50;99.90;;;;;;5052997;28;20067;-60
2022/02/07 06:14:22;;;;;;;19.42;17.52;;;4.50;99.90;;;;;;5034676;28;20052;-59
2022/02/07 06:16:47;;;;;;;19.42;17.52;;;4.50;99.90;;;;;;5052809;28;20433;-61
2022/02/07 06:19:13;;;;;;;19.02;17.23;;;4.60;99.90;;;;;;5035283;28;20025;-60
2022/02/07 06:21:39;;;;;;;19.02;17.20;;;4.60;99.90;;;;;;5052918;28;20033;-59
2022/02/07 06:24:05;;;;;;;19.48;17.58;;;4.60;99.90;;;;;;5052683;28;20028;-59
2022/02/07 06:26:31;;;;;;;19.60;17.70;;;4.60;99.90;;;;;;5034804;28;20025;-59
2022/02/07 06:28:58;;;;;;;18.75;16.95;;;4.60;99.90;;;;;;5034639;28;20082;-60
2022/02/07 06:31:24;;;;;;;18.58;16.77;;;4.70;99.90;;;;;;5053509;28;20025;-60
2022/02/07 06:33:50;;;;;;;18.42;16.63;;;4.80;99.90;;;;;;5053764;28;20384;-60
2022/02/07 06:36:16;;;;;;;18.40;16.60;;;4.90;99.90;;;;;;5053345;28;20095;-61
2022/02/07 06:38:42;;;;;;;18.27;16.48;;;4.90;99.90;;;;;;5053734;28;20100;-60
2022/02/07 06:41:07;;;;;;;18.45;16.65;;;5.00;99.90;;;;;;5052000;28;20477;-61
2022/02/07 06:43:33;;;;;;;18.42;16.63;;;5.00;99.90;;;;;;5052662;28;20059;-60
2022/02/07 06:45:58;;;;;;;18.55;16.75;;;5.00;99.90;;;;;;5051998;28;20105;-60
2022/02/07 06:48:25;;;;;;;19.85;17.95;;;5.00;99.90;;;;;;5052440;28;20029;-56
2022/02/07 06:50:51;;;;;;;19.98;18.08;;;5.00;99.90;;;;;;5051709;28;20108;-60
2022/02/07 06:53:17;;;;;;;20.65;18.55;;;4.90;99.90;;;;;;5052192;28;20477;-55
2022/02/07 06:55:42;;;;;;;20.90;19.00;;;4.90;99.90;;;;;;5042478;28;20028;-54
2022/02/07 06:58:08;;;;;;;20.48;18.58;;;4.90;99.90;;;;;;5046171;28;20461;-59
2022/02/07 07:00:34;;;;;;;24.42;21.25;;;4.90;99.90;;;;;;5033851;28;20048;-58
2022/02/07 07:03:00;;;;;;;19.15;17.25;;;4.90;99.90;;;;;;5051405;28;20048;-59
2022/02/07 07:05:26;;;;;;;19.10;17.20;;;4.90;99.90;;;;;;5033075;28;20461;-62
2022/02/07 07:07:51;;;;;;;18.77;16.98;;;4.90;99.90;;;;;;5052348;22;20053;-63
2022/02/07 07:10:18;;;;;;;18.80;17.00;;;4.90;99.90;;;;;;5031657;28;20067;-64
2022/02/07 07:12:45;;;;;;;19.17;17.27;;;4.90;99.90;;;;;;5013989;28;20060;-67
2022/02/07 07:15:15;;;;;;;18.77;16.98;;;4.80;99.90;;;;;;5014387;28;20021;-61
2022/02/07 07:17:41;;;;;;;18.83;17.02;;;4.80;99.90;;;;;;5047362;28;20061;-64
2022/02/07 07:20:08;;;;;;;18.85;17.05;;;4.90;99.90;;;;;;5034055;28;20519;-62
2022/02/07 07:22:34;;;;;;;18.38;16.58;;;4.90;99.90;;;;;;5051797;28;20052;-63
2022/02/07 07:25:01;;;;;;;18.33;16.52;;;4.90;99.90;;;;;;5051984;28;20049;-63
2022/02/07 07:27:31;;;;;;;18.40;16.60;;;4.90;99.90;;;;;;5033585;28;20071;-63
2022/02/07 07:29:57;;;;;;;18.48;16.67;;;4.80;99.90;;;;;;5034167;28;20489;-64
2022/02/07 07:32:27;;;;;;;18.60;16.80;;;4.80;99.90;;;;;;5033532;28;20040;-65
2022/02/07 07:34:52;;;;;;;18.73;16.92;;;4.80;99.90;;;;;;5051623;28;20036;-63
2022/02/07 07:37:18;;;;;;;18.50;16.70;;;4.70;99.90;;;;;;5033631;28;20047;-62
2022/02/07 07:39:44;;;;;;;18.58;16.77;;;4.70;99.90;;;;;;5054489;28;20013;-64
2022/02/07 07:42:10;;;;;;;18.30;16.50;;;4.70;99.90;;;;;;5057953;28;20029;-64
2022/02/07 07:44:38;;;;;;;45.35;18.80;;;4.70;99.90;;;;;;5058534;28;20095;-63
2022/02/07 07:47:14;;;;;;;18.42;16.63;;;4.60;99.90;;;;;;5057527;28;20469;-65
2022/02/07 07:49:58;;;;;;;18.30;16.50;;;4.60;99.90;;;;;;5057764;28;20029;-65
2022/02/07 07:52:41;;;;;;;17.73;15.93;;;4.70;99.90;;;;;;5057709;28;20036;-65
2022/02/07 08:01:21;;;;;;;18.70;16.90;;;4.60;99.90;;;;;;5052514;28;20048;-62
2022/02/07 08:03:15;;;;;;;18.33;16.52;;;4.60;99.90;;;;;;5051220;28;20104;-65
2022/02/07 08:06:05;;;;;;;18.60;16.80;;;4.60;99.90;;;;;;5050918;28;20029;-62
2022/02/07 08:08:32;;;;;;;18.38;16.58;;;4.60;99.90;;;;;;5051030;28;20021;-64
2022/02/07 08:11:08;;;;;;;18.90;17.10;;;4.60;99.90;;;;;;5051098;28;20017;-63
2022/02/07 08:13:34;;;;;;;18.17;16.38;;;4.60;99.90;;;;;;5051433;28;20066;-62
2022/02/07 08:15:59;;;;;;;18.48;16.67;;;4.70;99.90;;;;;;5050852;28;20021;-61
2022/02/07 08:18:26;;;;;;;17.90;16.10;;;4.60;99.90;;;;;;5051007;28;20025;-64
2022/02/07 08:20:52;;;;;;;17.95;16.15;;;4.80;99.90;;;;;;5033788;28;20032;-64
2022/02/07 08:23:18;;;;;;;18.08;16.27;;;4.80;99.90;;;;;;5051772;28;20029;-64
2022/02/07 08:25:44;;;;;;;18.00;16.20;;;4.80;99.90;;;;;;5054242;28;20052;-64
2022/02/07 08:28:09;;;;;;;17.95;16.15;;;4.80;99.90;;;;;;5054819;28;20476;-63
2022/02/07 08:30:35;;;;;;;17.60;15.80;;;4.80;99.90;;;;;;5054781;28;20448;-64
2022/02/07 08:33:04;;;;;;;17.65;15.85;;;4.90;99.90;;;;;;5054804;28;20025;-64
2022/02/07 08:35:30;;;;;;;17.90;16.10;;;5.00;99.90;;;;;;5036829;28;20029;-65
2022/02/07 08:37:59;;;;;;;22.77;17.45;;;5.00;99.90;;;;;;5055175;28;20373;-65
2022/02/07 08:40:26;;;;;;;17.80;16.00;;;5.00;99.90;;;;;;5054983;28;20025;-64
2022/02/07 08:42:53;;;;;;;17.65;15.85;;;5.10;99.90;;;;;;5055279;28;20029;-64
2022/02/07 08:45:20;;;;;;;18.08;16.27;;;5.10;99.90;;;;;;5055031;28;20013;-61
2022/02/07 08:47:45;;;;;;;17.70;15.90;;;5.20;99.90;;;;;;5055302;28;20082;-64
2022/02/07 08:50:12;;;;;;;17.63;15.82;;;5.20;99.90;;;;;;5054866;28;20436;-65
2022/02/07 08:52:42;;;;;;;18.02;16.23;;;5.20;99.90;;;;;;5054620;28;20465;-64
2022/02/07 08:55:12;;;;;;;18.45;16.63;;;5.30;99.90;;;;;;5055008;28;20025;-62
2022/02/07 08:57:43;;;;;;;18.10;16.30;;;5.30;99.90;;;;;;5054899;28;20023;-64
2022/02/07 09:00:16;;;;;;;18.30;16.50;;;5.30;99.90;;;;;;5053516;28;20424;-65
2022/02/07 09:05:56;;;;;;;18.42;16.63;;;5.40;99.90;;;;;;5054174;28;20025;-63
2022/02/07 09:10:42;;;;;;;18.27;16.48;;;5.50;99.90;;;;;;5054474;28;20040;-61
2022/02/07 09:13:08;;;;;;;18.38;16.58;;;5.60;99.90;;;;;;5054446;28;20370;-63
2022/02/07 09:18:07;;;;;;;17.92;16.13;;;5.70;99.90;;;;;;5054243;28;20025;-64
2022/02/07 09:20:35;;;;;;;17.63;15.82;;;5.70;99.90;;;;;;5053672;28;20025;-66
2022/02/07 09:23:01;;;;;;;17.60;15.80;;;5.70;99.90;;;;;;5035165;28;20099;-66
2022/02/07 09:25:28;;;;;;;17.23;15.43;;;5.70;99.90;;;;;;5052680;28;20036;-66
2022/02/07 09:27:53;;;;;;;17.55;15.75;;;5.70;99.90;;;;;;5053360;28;20025;-62
2022/02/07 09:30:19;;;;;;;17.85;16.05;;;5.90;99.90;;;;;;5053536;28;20036;-61
2022/02/07 09:32:46;;;;;;;20.00;18.10;;;6.00;99.90;;;;;;5053272;28;20025;-66
2022/02/07 09:35:12;;;;;;;17.23;15.43;;;6.20;99.90;;;;;;5053721;28;20025;-66
2022/02/07 09:37:40;;;;;;;17.55;15.75;;;6.30;99.90;;;;;;5052914;28;20028;-66
2022/02/07 09:40:07;;;;;;;18.50;16.70;;;6.40;99.90;;;;;;5052605;28;20020;-68
2022/02/07 09:42:34;;;;;;;26.65;17.27;;;6.40;99.90;;;;;;5053084;28;20033;-67
2022/02/07 09:45:10;;;;;;;23.33;18.55;;;6.50;99.90;;;;;;5053044;28;20075;-68
2022/02/07 09:47:38;;;;;;;26.52;17.67;;;6.70;99.90;;;;;;5052440;28;20025;-62
2022/02/07 09:50:06;;;;;;;26.83;17.77;;;6.70;99.90;;;;;;5051859;28;20029;-66
2022/02/07 09:52:33;;;;;;;24.80;18.50;;;6.60;99.90;;;;;;5049517;28;20477;-66
2022/02/07 09:54:58;;;;;;;28.73;19.45;;;6.50;99.90;;;;;;5034180;28;20020;-65
2022/02/07 09:57:24;;;;;;;25.60;19.25;;;6.50;99.90;;;;;;5051688;28;20021;-67
2022/02/07 09:59:52;;;;;;;25.58;17.35;;;6.50;99.90;;;;;;5034103;28;20016;-65
2022/02/07 10:02:29;;;;;;;28.27;18.40;;;6.50;99.90;;;;;;5052383;28;20024;-67
2022/02/07 10:04:57;;;;;;;29.83;18.52;;;6.50;99.90;;;;;;5053012;28;20025;-65
2022/02/07 10:07:36;;;;;;;;;;;6.70;99.90;;;;;;5034944;28;20097;-66
2022/02/07 10:16:00;;;;;;;23.55;17.05;;;7.00;99.90;;;;;;5052043;28;20017;-63
2022/02/07 10:18:39;;;;;;;22.13;16.65;;;7.20;99.90;;;;;;5051831;28;20503;-64
2022/02/07 10:35:24;;;;;;;25.13;18.00;;;7.00;99.90;;;;;;5051639;28;20112;-65
2022/02/07 10:45:51;;;;;;;23.60;16.85;;;6.80;99.90;;;;;;5051583;28;20048;-64
2022/02/07 10:48:44;;;;;;;26.92;16.98;;;6.90;99.90;;;;;;5050904;28;20056;-64
2022/02/07 10:51:21;;;;;;;29.70;17.92;;;6.80;99.90;;;;;;5050440;28;20036;-65
2022/02/07 10:53:49;;;;;;;22.67;15.68;;;6.90;99.90;;;;;;5032836;28;20029;-59
2022/02/07 10:56:18;;;;;;;27.25;17.80;;;6.80;99.90;;;;;;5051076;28;20381;-64
2022/02/07 10:58:44;;;;;;;;;;;6.70;99.90;;;;;;5032455;28;20028;-65
2022/02/07 11:01:57;;;;;;;28.52;18.90;;;6.70;99.90;;;;;;5049630;28;20309;-65
2022/02/07 11:04:17;;;;;;;22.40;15.60;;;6.80;99.90;;;;;;5050011;28;20079;-63
2022/02/07 11:06:47;;;;;;;26.05;18.63;;;7.00;99.90;;;;;;5050816;28;20025;-63
2022/02/07 11:09:28;;;;;;;35.58;18.23;;;7.10;99.90;;;;;;5032928;28;20342;-64
2022/02/07 11:15:00;;;;;;;24.65;17.65;;;7.40;99.90;;;;;;5051154;28;20047;-64
2022/02/07 11:28:25;;;;;;;34.22;18.65;;;7.90;99.90;;;;;;5050747;28;20021;-65
2022/02/07 11:30:55;;;;;;;42.03;19.70;;;8.10;99.90;;;;;;5050705;28;20108;-62
2022/02/07 11:34:02;;;;;;;24.40;16.90;;;8.20;99.90;;;;;;5050758;28;20032;-64
2022/02/07 11:36:39;;;;;;;24.30;17.95;;;8.00;99.90;;;;;;5050669;28;20346;-62
2022/02/07 11:39:13;;;;;;;25.83;17.67;;;7.70;99.90;;;;;;5050485;28;20021;-64
2022/02/07 11:41:59;;;;;;;27.77;18.25;;;7.80;99.90;;;;;;5050922;28;20017;-64
2022/02/07 11:44:38;;;;;;;31.30;19.40;;;7.70;99.90;;;;;;5050454;28;20144;-63
2022/02/07 11:47:16;;;;;;;24.63;16.77;;;7.90;99.90;;;;;;5050897;28;20045;-65
2022/02/07 11:49:47;;;;;;;23.27;17.83;;;8.90;99.90;;;;;;5033062;28;20408;-64
2022/02/07 11:52:30;;;;;;;28.50;18.98;;;8.70;99.90;;;;;;5050919;28;20383;-64
2022/02/07 11:55:09;;;;;;;26.95;17.77;;;8.70;99.90;;;;;;5050263;28;20079;-63
2022/02/07 11:57:38;;;;;;;22.80;18.23;;;8.70;99.90;;;;;;5050518;28;20043;-60
2022/02/07 12:00:11;;;;;;;24.45;18.63;;;8.90;99.90;;;;;;5052383;28;20108;-64
2022/02/07 12:02:38;;;;;;;24.75;18.92;;;8.30;99.90;;;;;;5055095;28;20044;-63
2022/02/07 12:05:10;;;;;;;23.33;17.90;;;8.10;99.90;;;;;;5055104;28;20032;-63
2022/02/07 12:07:38;;;;;;;25.50;18.48;;;7.90;99.90;;;;;;5054637;28;20041;-62
2022/02/07 12:12:40;;;;;;;24.48;18.52;;;8.10;99.90;;;;;;5054678;28;20037;-63
2022/02/07 12:15:37;;;;;;;23.55;18.40;;;8.00;99.90;;;;;;5054292;28;20041;-63
2022/02/07 12:18:14;;;;;;;24.60;19.55;;;8.60;99.90;;;;;;5055257;28;20036;-62
2022/02/07 12:20:48;;;;;;;28.80;19.00;;;9.60;99.90;;;;;;5054840;28;20169;-63
2022/02/07 12:23:31;;;;;;;25.83;19.38;;;10.10;99.90;;;;;;5055131;28;20025;-64
2022/02/07 12:26:08;;;;;;;27.85;19.50;;;10.70;99.90;;;;;;5054957;28;20078;-63
2022/02/07 12:33:44;;;;;;;24.52;19.05;;;9.80;99.90;;;;;;5055192;28;20070;-64
2022/02/07 12:36:10;;;;;;;22.02;19.58;;;9.50;99.90;;;;;;5036966;28;20066;-64
2022/02/07 12:38:39;;;;;;;21.90;19.42;;;9.90;99.90;;;;;;5054990;28;20025;-62
2022/02/07 12:41:08;;;;;;;31.55;21.27;;;9.70;99.90;;;;;;5054681;28;20029;-64
2022/02/07 12:43:37;;;;;;;34.25;21.10;;;9.40;99.90;;;;;;5055040;28;20068;-64
2022/02/07 12:46:06;;;;;;;22.13;19.42;;;9.70;99.90;;;;;;5054882;28;20029;-64
2022/02/07 12:48:33;;;;;;;29.90;20.17;;;9.30;99.90;;;;;;5036801;28;20439;-63
2022/02/07 12:51:00;;;;;;;30.42;21.55;;;8.70;99.90;;;;;;5054196;28;20025;-64
2022/02/07 12:53:29;;;;;;;26.85;19.45;;;8.60;99.90;;;;;;5054460;28;20085;-64
2022/02/07 12:56:00;;;;;;;24.80;19.23;;;8.40;99.90;;;;;;5053964;28;20020;-65
2022/02/07 12:58:35;;;;;;;22.27;19.55;;;8.30;99.90;;;;;;5053933;28;20021;-64
2022/02/07 13:01:27;;;;;;;24.40;19.92;;;7.90;99.90;;;;;;5053834;28;20024;-64
2022/02/07 13:03:52;;;;;;;25.20;20.17;;;8.10;99.90;;;;;;5054192;28;20378;-64
2022/02/07 13:09:12;;;;;;;24.35;19.13;;;8.00;99.90;;;;;;5091889;28;20048;-66
2022/02/07 13:11:49;;;;;;;26.60;19.42;;;7.80;99.90;;;;;;5094092;28;20157;-67
2022/02/07 13:14:16;;;;;;;25.33;19.10;;;7.90;99.90;;;;;;5094935;28;20016;-67
2022/02/07 13:16:43;;;;;;;28.63;19.67;;;8.60;99.90;;;;;;5076353;28;20039;-69
2022/02/07 13:19:12;;;;;;;25.50;20.02;;;9.30;99.90;;;;;;5076459;28;20111;-65
2022/02/07 13:21:40;;;;;;;;;;;9.50;99.90;;;;;;5094822;28;20535;-65
2022/02/07 13:24:15;;;;;;;24.70;19.48;;;10.10;99.90;;;;;;5093953;28;19904;-64
2022/02/07 13:26:49;;;;;;;36.95;21.30;;;9.90;99.90;;;;;;5076346;28;20488;-67
2022/02/07 13:29:23;;;;;;;22.25;19.17;;;9.70;99.90;;;;;;5075796;28;20035;-67
2022/02/07 13:32:08;;;;;;;23.30;18.80;;;9.80;99.90;;;;;;5075535;28;20086;-65
2022/02/07 13:34:37;;;;;;;21.20;18.63;;;9.60;99.90;;;;;;5092795;28;20020;-67
2022/02/07 13:37:08;;;;;;;;;;;9.70;99.90;;;;;;5094795;28;20025;-61
2022/02/07 13:40:00;;;;;;;19.85;9.00;;;10.00;99.90;;;;;;5094182;28;19950;-66
2022/02/07 13:42:27;;;;;;;22.23;9.05;;;11.10;99.90;;;;;;5069917;28;20391;-68
2022/02/07 13:44:57;;;;;;;20.15;8.90;;;10.80;99.90;;;;;;5064201;28;20029;-67
2022/02/07 13:47:25;;;;;;;19.33;9.00;;;10.20;99.90;;;;;;5091067;28;20024;-68
2022/02/07 13:50:01;;;;;;;19.45;8.98;;;10.40;99.90;;;;;;5093886;28;20020;-66
2022/02/07 13:52:33;;;;;;;23.20;9.60;;;9.90;99.90;;;;;;5094186;28;20055;-69
2022/02/07 13:55:28;;;;;;;17.52;8.43;;;9.80;99.90;;;;;;5093854;28;20111;-68
2022/02/07 13:58:02;;;;;;;17.58;8.57;;;10.20;99.90;;;;;;5093384;28;20024;-68
2022/02/07 14:00:50;;;;;;;22.73;8.38;;;9.70;99.90;;;;;;5094346;28;20084;-69
2022/02/07 14:03:23;;;;;;;18.70;8.40;;;9.80;99.90;;;;;;5075286;28;20134;-68
2022/02/07 14:05:54;;;;;;;22.00;8.60;;;9.90;99.90;;;;;;5075538;28;20028;-68
2022/02/07 14:08:38;;;;;;;18.17;8.32;;;10.20;99.90;;;;;;5075649;28;20031;-68
2022/02/07 14:11:07;;;;;;;19.83;8.55;;;10.20;99.90;;;;;;5093937;28;20024;-69
2022/02/07 14:13:34;;;;;;;18.08;8.93;;;9.80;99.90;;;;;;5076086;28;20024;-68
2022/02/07 14:15:59;;;;;;;19.70;9.73;;;9.60;99.90;;;;;;5082561;28;20059;-68
2022/02/07 14:18:26;;;;;;;18.45;8.50;;;9.90;99.90;;;;;;5078702;28;20052;-67
2022/02/07 14:20:53;;;;;;;20.83;10.32;;;10.10;99.90;;;;;;5081386;28;20472;-67
2022/02/07 14:23:19;;;;;;;18.00;8.70;;;10.40;99.90;;;;;;5067917;28;20020;-68
2022/02/07 14:25:49;;;;;;;18.58;7.90;;;9.70;99.90;;;;;;5072940;28;20511;-68
2022/02/07 14:28:15;;;;;;;21.23;9.52;;;8.90;99.90;;;;;;5055007;28;20074;-68
2022/02/07 14:30:41;;;;;;;17.95;8.70;;;8.80;99.90;;;;;;5073076;28;20103;-68
2022/02/07 14:33:07;;;;;;;18.83;8.40;;;8.80;99.90;;;;;;5073206;28;20071;-67
2022/02/07 14:35:35;;;;;;;23.50;9.07;;;9.40;99.90;;;;;;5073328;28;20394;-70
2022/02/07 14:38:04;;;;;;;18.20;8.53;;;9.70;99.90;;;;;;5055302;28;20024;-67
2022/02/07 14:40:36;;;;;;;20.33;9.10;;;10.20;99.90;;;;;;5072875;28;20017;-68
2022/02/07 14:43:04;;;;;;;22.63;9.70;;;10.10;99.90;;;;;;5072524;28;20032;-67
2022/02/07 14:45:35;;;;;;;21.20;8.75;;;10.80;99.90;;;;;;5054396;28;20024;-68
2022/02/07 14:48:03;;;;;;;22.35;9.40;;;11.20;99.90;;;;;;5072834;28;20048;-69
2022/02/07 14:50:29;;;;;;;20.43;8.60;;;11.20;99.90;;;;;;5072929;28;20024;-69
2022/02/07 14:52:55;;;;;;;19.98;9.00;;;11.20;99.90;;;;;;5054498;28;20277;-69
2022/02/07 14:55:23;;;;;;;20.85;9.20;;;11.20;99.90;;;;;;5072752;28;20388;-67
2022/02/07 14:57:49;;;;;;;18.73;8.50;;;11.50;99.90;;;;;;5088727;28;20028;-68
2022/02/07 15:00:21;;;;;;;19.17;8.73;;;11.10;99.90;;;;;;5093608;28;20051;-68
2022/02/07 15:02:48;;;;;;;17.95;8.90;;;10.70;99.90;;;;;;5093220;28;20024;-68
2022/02/07 15:05:14;;;;;;;19.33;9.00;;;10.00;99.90;;;;;;5093011;28;20028;-68
2022/02/07 15:07:40;;;;;;;15.93;8.90;;;9.50;99.90;;;;;;5092996;28;20448;-69
2022/02/07 15:10:08;;;;;;;18.20;8.35;;;9.10;99.90;;;;;;5093363;28;20020;-69
2022/02/07 15:12:36;;;;;;;23.50;8.23;;;8.60;99.90;;;;;;5092675;28;20074;-68
2022/02/07 15:15:04;;;;;;;17.80;8.02;;;8.50;99.90;;;;;;5074359;28;20803;-69
2022/02/07 15:17:31;;;;;;;19.92;8.63;;;8.50;99.90;;;;;;5092620;28;20024;-67
2022/02/07 15:20:00;;;;;;;16.48;7.80;;;8.60;99.90;;;;;;5092864;28;20026;-68
2022/02/07 15:22:26;;;;;;;21.17;7.80;;;8.70;99.90;;;;;;5092812;28;20043;-67
2022/02/07 15:24:55;;;;;;;21.92;7.95;;;8.60;99.90;;;;;;5092667;28;20050;-67
2022/02/07 15:27:22;;;;;;;23.27;8.35;;;8.50;99.90;;;;;;5091976;28;20039;-70
2022/02/07 15:29:48;;;;;;;17.85;8.07;;;8.50;99.90;;;;;;5092744;28;20031;-69
2022/02/07 15:34:47;;;;;;;23.52;8.70;;;8.50;99.90;;;;;;5091751;28;20027;-68
2022/02/07 15:37:13;;;;;;;15.23;7.65;;;8.30;99.90;;;;;;5073874;28;20024;-68
2022/02/07 15:39:38;;;;;;;16.73;7.43;;;8.00;99.90;;;;;;5074265;28;20142;-69